HTMW

Mwanza Airport

Mwanza, Tanzania
METAR HTMW 191900Z 00000KT 9999 FEW022 FEW023CB SCT110 23/18 Q1018 NOSIG
Observed Flight Rules
Jun-19 @ 19:00 UTC (an hour ago) Visual Flight Rules
Visibility Clouds
10,000+ meters
  • Few at 2,200' AGL
  • Few at 2,300' AGL
  • Scattered at 11,000' AGL
Temperatures Readings
Current 23°C / 73°F
Dewpoint 18°C / 64°F
Humidity 74%
Altimeter 30.06" Hg
Pressure 1018 hPa
Elevation 1140
METAR HTMW 191900Z 00000KT 9999 FEW022 FEW023CB SCT110 23/18 Q1018 NOSIG
Observed Flight Rules
Jun-19 @ 19:00 UTC
(an hour ago)
VFR
Clouds
  • Few at 2,200' AGL
  • Few at 2,300' AGL
  • Scattered at 11,000' AGL
Temperature Dewpoint
23°C / 73°F 18°C / 64°F
Humidity Altimeter Pressure
74% 30.06" Hg 1018 hPa